Time;durP1;ratioP1;P1;durP2;ratioP2;P2;SDS_P1;SDS_P2;PMS_P1;PMS_P2;Temp;Humidity;BMP_temperature;BMP_pressure;BME280_temperature;BME280_humidity;BME280_pressure;Samples;Min_cycle;Max_cycle;Signal;HPM_P1;HPM_P2
2021/12/16 00:02:57;;;;;;;180.35;55.55;;;;;;;8.02;100.00;103403.06;5142815;27;20064;-48
2021/12/16 00:07:57;;;;;;;198.10;57.17;;;;;;;7.99;100.00;103393.44;5142196;27;20062;-49
2021/12/16 00:10:51;;;;;;;194.65;56.60;;;;;;;8.01;100.00;103402.19;5141525;27;20071;-46
2021/12/16 00:34:41;;;;;;;178.70;55.80;;;;;;;8.00;100.00;103410.25;5141859;27;20466;-47
2021/12/16 00:37:07;;;;;;;179.73;55.35;;;;;;;8.00;100.00;103413.78;5141634;27;20015;-46
2021/12/16 00:39:34;;;;;;;182.35;54.70;;;;;;;7.99;100.00;103416.50;5140678;27;20030;-46
2021/12/16 00:42:06;;;;;;;181.85;53.97;;;;;;;7.98;100.00;103412.16;5141056;27;20023;-49
2021/12/16 00:47:25;;;;;;;174.10;55.40;;;;;;;7.99;100.00;103414.72;5140777;27;20125;-45
2021/12/16 00:49:50;;;;;;;174.27;54.65;;;;;;;7.97;100.00;103407.75;5140704;27;20122;-47
2021/12/16 00:55:56;;;;;;;169.68;54.58;;;;;;;7.97;100.00;103408.59;5137682;27;20394;-47
2021/12/16 00:57:55;;;;;;;169.38;52.97;;;;;;;7.98;100.00;103405.03;5128094;27;20431;-44
2021/12/16 01:00:25;;;;;;;165.75;54.20;;;;;;;7.98;100.00;103404.16;5141224;27;20041;-46
2021/12/16 01:05:56;;;;;;;186.00;55.15;;;;;;;7.96;100.00;103396.25;5140755;27;20070;-49
2021/12/16 01:36:12;;;;;;;166.48;53.85;;;;;;;7.97;100.00;103435.22;5119785;27;20037;-48
2021/12/16 01:46:43;;;;;;;169.35;52.92;;;;;;;7.97;100.00;103439.69;5119800;27;19957;-50
2021/12/16 01:59:45;;;;;;;174.70;56.15;;;;;;;7.96;100.00;103449.47;5120385;27;20470;-47
2021/12/16 02:05:35;;;;;;;167.38;53.90;;;;;;;7.93;100.00;103446.13;5139438;27;20560;-47
2021/12/16 02:10:40;;;;;;;168.98;54.35;;;;;;;7.91;100.00;103454.19;5120695;27;20015;-48
2021/12/16 02:29:54;;;;;;;174.60;55.25;;;;;;;7.86;100.00;103464.22;5139038;27;20127;-45
2021/12/16 02:35:14;;;;;;;160.55;53.38;;;;;;;7.87;100.00;103468.56;5139107;27;20030;-45
2021/12/16 02:37:47;;;;;;;170.40;53.88;;;;;;;7.86;100.00;103469.53;5138733;27;20019;-46
2021/12/16 02:40:13;;;;;;;163.30;52.58;;;;;;;7.87;100.00;103473.88;5138196;27;20023;-46
2021/12/16 02:42:56;;;;;;;167.82;53.33;;;;;;;7.87;100.00;103476.56;5119326;27;20555;-46
2021/12/16 02:48:36;;;;;;;166.90;54.63;;;;;;;7.85;100.00;103473.13;5103421;27;20091;-48
2021/12/16 02:51:07;;;;;;;172.95;53.85;;;;;;;7.87;100.00;103478.34;5118534;27;20474;-50
2021/12/16 02:53:34;;;;;;;155.65;53.25;;;;;;;7.87;100.00;103484.53;5118081;27;20201;-48
2021/12/16 02:55:59;;;;;;;156.65;51.90;;;;;;;7.86;100.00;103482.84;5117497;27;20073;-47
2021/12/16 02:58:25;;;;;;;170.88;52.90;;;;;;;7.84;100.00;103477.59;5117154;28;20043;-48
2021/12/16 03:01:13;;;;;;;164.38;52.92;;;;;;;7.88;100.00;103472.13;5118089;28;20027;-45
2021/12/16 03:03:39;;;;;;;158.98;51.55;;;;;;;7.86;100.00;103472.19;5118120;28;20039;-46
2021/12/16 03:06:05;;;;;;;164.63;54.70;;;;;;;7.83;100.00;103465.22;5118158;28;20064;-47
2021/12/16 03:08:32;;;;;;;164.50;53.78;;;;;;;7.82;100.00;103471.50;5117808;28;20038;-46
2021/12/16 03:11:08;;;;;;;174.95;54.00;;;;;;;7.81;100.00;103468.91;5117551;28;20055;-45
2021/12/16 03:13:41;;;;;;;164.20;54.05;;;;;;;7.80;100.00;103472.50;5116700;28;20374;-46
2021/12/16 03:16:27;;;;;;;169.70;53.65;;;;;;;7.81;100.00;103472.41;5117763;28;20030;-50
2021/12/16 03:19:21;;;;;;;172.57;54.80;;;;;;;7.80;100.00;103469.81;5117744;28;20046;-46
2021/12/16 03:21:45;;;;;;;154.35;52.38;;;;;;;7.82;100.00;103474.16;5117590;28;20141;-45
2021/12/16 03:32:34;;;;;;;164.00;52.45;;;;;;;7.74;100.00;103468.34;5121849;27;20065;-47
2021/12/16 03:37:53;;;;;;;159.18;51.53;;;;;;;7.74;100.00;103470.13;5121346;27;20058;-46
2021/12/16 03:40:19;;;;;;;173.90;55.35;;;;;;;7.72;100.00;103464.91;5121118;27;20023;-45
2021/12/16 03:42:50;;;;;;;170.50;54.38;;;;;;;7.70;100.00;103472.09;5120248;27;20348;-46
2021/12/16 03:48:20;;;;;;;162.55;53.90;;;;;;;7.71;100.00;103479.13;5120948;27;20054;-48
2021/12/16 03:50:45;;;;;;;172.98;54.35;;;;;;;7.70;100.00;103481.88;5121733;27;20754;-48
2021/12/16 03:53:14;;;;;;;170.27;55.17;;;;;;;7.68;100.00;103486.41;5121040;27;20023;-46
2021/12/16 03:55:39;;;;;;;159.65;52.67;;;;;;;7.66;100.00;103494.47;5121036;27;20098;-48
2021/12/16 03:58:05;;;;;;;176.68;54.92;;;;;;;7.67;100.00;103493.50;5120142;27;20023;-46
2021/12/16 04:00:35;;;;;;;176.35;57.20;;;;;;;7.64;100.00;103485.72;5121709;27;20155;-46
2021/12/16 04:03:02;;;;;;;161.70;53.30;;;;;;;7.65;100.00;103495.41;5120757;27;20031;-45
2021/12/16 04:05:28;;;;;;;168.25;53.97;;;;;;;7.63;100.00;103483.97;5121552;27;20390;-48
2021/12/16 04:07:53;;;;;;;172.13;54.25;;;;;;;7.59;100.00;103488.59;5120883;27;20141;-46
2021/12/16 04:10:43;;;;;;;172.90;53.50;;;;;;;7.56;100.00;103493.22;5120491;27;20109;-45
2021/12/16 04:13:12;;;;;;;173.80;53.65;;;;;;;7.55;100.00;103491.47;5119584;27;20165;-48
2021/12/16 04:15:38;;;;;;;161.52;52.85;;;;;;;7.50;100.00;103490.84;5121192;27;20046;-45
2021/12/16 04:18:03;;;;;;;166.98;53.53;;;;;;;7.44;100.00;103484.88;5101897;27;20124;-49
2021/12/16 04:20:29;;;;;;;167.57;53.13;;;;;;;7.34;100.00;103483.63;5132379;27;20018;-47
2021/12/16 04:22:56;;;;;;;171.77;54.08;;;;;;;7.34;100.00;103491.59;5141899;27;20549;-50
2021/12/16 04:25:27;;;;;;;179.95;56.67;;;;;;;7.31;100.00;103486.41;5140876;27;20026;-46
2021/12/16 04:27:54;;;;;;;;;;;;;;;7.28;100.00;103481.25;5140412;27;20030;-48
2021/12/16 04:30:22;;;;;;;162.52;50.42;;;;;;;7.21;100.00;103475.41;5141889;27;20009;-47
2021/12/16 04:32:48;;;;;;;172.35;54.13;;;;;;;7.20;100.00;103486.09;5141627;27;20237;-48
2021/12/16 04:35:15;;;;;;;184.25;53.80;;;;;;;7.18;100.00;103478.19;5141339;27;20538;-45
2021/12/16 04:37:40;;;;;;;174.90;55.10;;;;;;;7.10;100.00;103470.56;5141108;27;20140;-46
2021/12/16 04:40:09;;;;;;;185.77;56.67;;;;;;;7.13;100.00;103482.00;5139251;27;20108;-48
2021/12/16 04:42:37;;;;;;;174.15;55.13;;;;;;;7.06;100.00;103481.41;5140250;27;20083;-46
2021/12/16 04:45:09;;;;;;;178.75;54.58;;;;;;;7.04;100.00;103481.53;5141312;27;20444;-49
2021/12/16 04:47:36;;;;;;;181.02;55.35;;;;;;;6.98;100.00;103479.13;5141678;27;20050;-47
2021/12/16 04:50:03;;;;;;;171.93;53.72;;;;;;;6.95;100.00;103479.28;5129106;27;20100;-46
2021/12/16 04:52:29;;;;;;;175.77;54.35;;;;;;;6.87;100.00;103482.31;5120409;27;20023;-47
2021/12/16 04:54:54;;;;;;;177.82;52.83;;;;;;;6.80;100.00;103480.84;5119566;27;20063;-47
2021/12/16 04:57:19;;;;;;;183.43;54.22;;;;;;;6.76;100.00;103481.94;5119598;27;20097;-45
2021/12/16 04:59:45;;;;;;;175.40;53.40;;;;;;;6.72;100.00;103485.66;5120164;27;20110;-46
2021/12/16 05:02:15;;;;;;;193.60;52.35;;;;;;;6.69;100.00;103483.16;5120586;27;20424;-49
2021/12/16 05:04:41;;;;;;;175.52;51.85;;;;;;;6.65;100.00;103487.75;5120292;27;20035;-47
2021/12/16 05:07:08;;;;;;;169.45;51.95;;;;;;;6.58;100.00;103486.28;5120352;27;20367;-47
2021/12/16 05:12:11;;;;;;;163.05;50.95;;;;;;;6.49;100.00;103497.34;5118758;27;20043;-45
2021/12/16 05:14:37;;;;;;;;;;;;;;;6.45;100.00;103499.28;5120853;27;20057;-47
2021/12/16 05:17:09;;;;;;;156.20;48.60;;;;;;;6.40;100.00;103495.06;5101035;27;20494;-48
2021/12/16 05:19:35;;;;;;;180.95;49.88;;;;;;;6.33;100.00;103492.72;5123403;27;20431;-47
2021/12/16 05:24:15;;;;;;;157.18;49.53;;;;;;;6.26;100.00;103490.38;5140791;27;20030;-46
2021/12/16 05:24:46;;;;;;;159.60;49.10;;;;;;;6.26;100.00;103499.22;5139402;27;20068;-45
2021/12/16 05:27:11;;;;;;;153.75;49.95;;;;;;;6.23;100.00;103495.81;5138834;27;20050;-46
2021/12/16 05:29:38;;;;;;;158.00;49.05;;;;;;;6.17;100.00;103510.22;5140547;27;20019;-48
2021/12/16 05:32:04;;;;;;;159.75;49.05;;;;;;;6.13;100.00;103513.97;5140654;27;20040;-47
2021/12/16 05:34:29;;;;;;;165.05;48.25;;;;;;;6.07;100.00;103498.28;5140843;27;20078;-47
2021/12/16 05:36:55;;;;;;;177.90;50.35;;;;;;;6.03;100.00;103509.97;5139866;27;20395;-45
2021/12/16 05:39:22;;;;;;;157.15;49.63;;;;;;;6.00;100.00;103510.97;5140095;27;20446;-47
2021/12/16 05:41:48;;;;;;;146.68;49.13;;;;;;;5.96;100.00;103515.53;5139574;27;20079;-46
2021/12/16 05:44:14;;;;;;;151.45;47.55;;;;;;;5.92;100.00;103515.69;5139597;27;20061;-45
2021/12/16 05:46:41;;;;;;;145.48;46.75;;;;;;;5.89;100.00;103527.31;5140576;27;20046;-45
2021/12/16 05:49:12;;;;;;;139.57;45.88;;;;;;;5.84;100.00;103521.34;5120819;27;20042;-46
2021/12/16 05:51:39;;;;;;;129.07;45.67;;;;;;;5.80;100.00;103519.72;5139954;27;20030;-45
2021/12/16 05:54:06;;;;;;;145.00;45.47;;;;;;;5.73;100.00;103521.75;5139853;27;20022;-44
2021/12/16 05:56:33;;;;;;;147.07;46.88;;;;;;;5.71;100.00;103531.56;5139711;27;20030;-47
2021/12/16 05:58:58;;;;;;;187.10;45.20;;;;;;;5.69;100.00;103530.78;5139146;27;20038;-45
2021/12/16 06:01:31;;;;;;;154.40;46.03;;;;;;;5.67;100.00;103527.31;5140046;27;20030;-45
2021/12/16 06:03:58;;;;;;;146.90;44.80;;;;;;;5.66;100.00;103553.91;5139466;27;20049;-49
2021/12/16 06:06:24;;;;;;;137.02;44.67;;;;;;;5.62;100.00;103542.56;5139643;27;20022;-47
2021/12/16 06:08:51;;;;;;;147.27;45.00;;;;;;;5.57;100.00;103548.03;5139822;27;20027;-47
2021/12/16 06:11:22;;;;;;;286.73;45.05;;;;;;;5.55;100.00;103543.72;5139875;27;20436;-49
2021/12/16 06:14:17;;;;;;;388.17;45.28;;;;;;;5.51;100.00;103542.13;5138733;27;20178;-50
2021/12/16 06:27:36;;;;;;;573.33;44.55;;;;;;;5.57;100.00;103556.00;5138580;27;20073;-48
2021/12/16 06:30:06;;;;;;;293.75;42.92;;;;;;;5.51;100.00;103550.94;5139271;27;20010;-47
2021/12/16 06:32:31;;;;;;;229.45;42.30;;;;;;;5.46;100.00;103558.19;5139745;27;20022;-46
2021/12/16 06:34:56;;;;;;;205.55;43.95;;;;;;;5.46;100.00;103558.19;5138907;27;20068;-46
2021/12/16 06:37:23;;;;;;;151.98;43.72;;;;;;;5.43;100.00;103568.91;5139676;27;20022;-47
2021/12/16 06:39:48;;;;;;;138.05;43.28;;;;;;;5.36;100.00;103567.44;5138383;27;20027;-48
2021/12/16 06:42:14;;;;;;;131.95;42.47;;;;;;;5.32;100.00;103557.88;5137475;27;20478;-45
2021/12/16 06:44:45;;;;;;;118.47;42.65;;;;;;;5.27;100.00;103563.38;5139071;27;20075;-48
2021/12/16 06:47:17;;;;;;;126.68;42.35;;;;;;;5.22;100.00;103560.88;5139188;27;20056;-47
2021/12/16 06:49:45;;;;;;;127.63;43.15;;;;;;;5.14;100.00;103554.16;5138895;27;20513;-46
2021/12/16 06:52:14;;;;;;;129.98;44.80;;;;;;;5.14;100.00;103559.44;5139035;27;20313;-47
2021/12/16 06:55:07;;;;;;;128.55;42.60;;;;;;;5.14;100.00;103567.41;5138380;27;20468;-47
2021/12/16 06:57:40;;;;;;;132.07;43.90;;;;;;;5.07;100.00;103566.75;5120165;27;20067;-46
2021/12/16 07:00:27;;;;;;;129.32;43.45;;;;;;;5.07;100.00;103571.22;5133411;27;20023;-44
2021/12/16 07:02:58;;;;;;;127.97;43.10;;;;;;;5.03;100.00;103573.13;5133623;27;20027;-48
2021/12/16 07:05:35;;;;;;;124.10;41.90;;;;;;;5.00;100.00;103574.06;5132239;27;20022;-46
2021/12/16 07:08:02;;;;;;;117.25;41.58;;;;;;;4.98;100.00;103583.88;5137608;27;20034;-48
2021/12/16 07:10:31;;;;;;;119.40;42.25;;;;;;;4.97;100.00;103581.28;5120747;27;20129;-44
2021/12/16 07:13:05;;;;;;;136.57;42.10;;;;;;;4.94;100.00;103584.03;5116556;28;20031;-46
2021/12/16 07:15:31;;;;;;;140.93;41.42;;;;;;;4.94;100.00;103594.63;5117914;28;20142;-45
2021/12/16 07:17:57;;;;;;;133.73;43.53;;;;;;;4.89;100.00;103583.34;5117540;28;20023;-49
2021/12/16 07:20:28;;;;;;;192.60;45.38;;;;;;;4.91;100.00;103592.97;5109854;27;20698;-44
2021/12/16 07:22:55;;;;;;;169.80;44.30;;;;;;;4.91;100.00;103600.06;5138244;27;20021;-50
2021/12/16 07:25:21;;;;;;;291.52;48.67;;;;;;;4.90;100.00;103617.72;5138191;27;20192;-44
2021/12/16 07:27:46;;;;;;;221.40;49.30;;;;;;;4.90;100.00;103615.06;5137314;27;20427;-44
2021/12/16 07:30:14;;;;;;;214.50;48.50;;;;;;;4.89;100.00;103623.94;5138785;27;20018;-46
2021/12/16 07:32:40;;;;;;;438.35;53.25;;;;;;;4.86;100.00;103618.75;5138050;27;20026;-46
2021/12/16 07:35:09;;;;;;;324.20;49.60;;;;;;;4.83;100.00;103617.06;5137957;27;20019;-47
2021/12/16 07:37:34;;;;;;;320.33;48.47;;;;;;;4.80;100.00;103625.16;5103570;27;20552;-45
2021/12/16 07:40:06;;;;;;;292.40;48.45;;;;;;;4.81;100.00;103631.28;5137190;27;20110;-48
2021/12/16 07:42:42;;;;;;;;;;;;;;;4.84;100.00;103637.34;5138274;27;20410;-48
2021/12/16 07:45:08;;;;;;;188.20;46.58;;;;;;;4.83;100.00;103640.91;5137990;27;20357;-45
2021/12/16 07:47:33;;;;;;;196.18;47.10;;;;;;;4.83;100.00;103646.19;5131725;27;20055;-45
2021/12/16 07:49:59;;;;;;;236.65;48.58;;;;;;;4.85;100.00;103656.72;5117344;28;20047;-49
2021/12/16 07:52:24;;;;;;;213.75;47.20;;;;;;;4.85;100.00;103660.25;5118284;28;20024;-47
2021/12/16 07:54:50;;;;;;;280.63;46.92;;;;;;;4.87;100.00;103673.44;5117049;28;20035;-48
2021/12/16 07:57:15;;;;;;;426.20;45.30;;;;;;;4.88;100.00;103677.81;5116799;28;20443;-46
2021/12/16 07:59:40;;;;;;;364.13;44.97;;;;;;;4.87;100.00;103681.38;5117150;27;20452;-45
2021/12/16 08:02:08;;;;;;;316.55;45.38;;;;;;;4.87;100.00;103670.78;5117970;28;20110;-47
2021/12/16 08:04:39;;;;;;;411.52;45.47;;;;;;;4.85;100.00;103669.97;5117933;28;20382;-48
2021/12/16 08:07:05;;;;;;;368.48;47.65;;;;;;;4.85;100.00;103678.81;5117385;28;20479;-49
2021/12/16 08:09:35;;;;;;;348.38;48.45;;;;;;;4.84;100.00;103674.41;5117415;28;20066;-48
2021/12/16 08:12:00;;;;;;;572.28;54.25;;;;;;;4.83;100.00;103685.91;5115884;28;20035;-48
2021/12/16 08:14:26;;;;;;;427.55;53.10;;;;;;;4.84;100.00;103676.22;5100830;27;20395;-48
2021/12/16 08:16:51;;;;;;;357.85;51.00;;;;;;;4.86;100.00;103685.81;5136642;27;20582;-48
2021/12/16 08:19:17;;;;;;;339.52;51.90;;;;;;;4.89;100.00;103695.44;5141427;27;20041;-48
2021/12/16 08:21:42;;;;;;;493.60;57.08;;;;;;;4.91;100.00;103695.41;5140668;27;20026;-48
2021/12/16 08:24:13;;;;;;;441.20;52.47;;;;;;;4.87;100.00;103699.91;5140931;27;20079;-49
2021/12/16 08:26:39;;;;;;;214.80;51.05;;;;;;;4.91;100.00;103708.63;5138957;27;20441;-48
2021/12/16 08:29:05;;;;;;;244.27;52.88;;;;;;;4.93;100.00;103715.59;5140541;27;20022;-46
2021/12/16 08:31:31;;;;;;;458.92;55.33;;;;;;;4.89;100.00;103711.34;5141478;27;20025;-46
2021/12/16 08:33:57;;;;;;;311.20;52.95;;;;;;;4.84;100.00;103698.25;5141475;27;20648;-46
2021/12/16 08:36:23;;;;;;;311.73;49.10;;;;;;;4.81;100.00;103711.59;5142090;27;20061;-48
2021/12/16 08:38:49;;;;;;;214.50;46.13;;;;;;;4.89;100.00;103715.75;5141473;27;20219;-49
2021/12/16 08:41:23;;;;;;;371.88;47.33;;;;;;;4.90;100.00;103713.03;5141645;27;20106;-46
2021/12/16 08:43:49;;;;;;;269.50;45.60;;;;;;;4.84;100.00;103716.78;5141501;27;20025;-46
2021/12/16 08:46:17;;;;;;;242.55;41.92;;;;;;;4.84;100.00;103715.94;5122670;27;20019;-46
2021/12/16 08:48:44;;;;;;;225.10;41.88;;;;;;;4.88;100.00;103725.47;5140773;27;20514;-45
2021/12/16 08:51:12;;;;;;;223.32;40.60;;;;;;;4.90;100.00;103726.28;5142239;27;20106;-45
2021/12/16 08:53:38;;;;;;;187.52;41.10;;;;;;;4.95;100.00;103736.72;5141180;27;20037;-48
2021/12/16 08:56:05;;;;;;;162.82;38.92;;;;;;;4.98;100.00;103734.84;5141344;27;20114;-49
2021/12/16 08:58:32;;;;;;;175.63;40.08;;;;;;;5.02;100.00;103740.88;5139736;27;20099;-47
2021/12/16 09:01:20;;;;;;;270.33;41.15;;;;;;;5.02;100.00;103738.25;5141332;27;20041;-48
2021/12/16 09:03:47;;;;;;;220.93;40.25;;;;;;;5.03;100.00;103742.63;5140713;27;20035;-48
2021/12/16 09:06:13;;;;;;;244.30;40.95;;;;;;;5.00;100.00;103735.63;5141666;27;20029;-46
2021/12/16 09:08:39;;;;;;;231.43;42.30;;;;;;;5.07;100.00;103753.97;5140509;27;20114;-48
2021/12/16 09:11:07;;;;;;;288.92;43.92;;;;;;;5.11;100.00;103742.34;5139591;27;20019;-47
2021/12/16 09:13:37;;;;;;;297.65;44.65;;;;;;;5.13;100.00;103744.03;5117928;27;20027;-46
2021/12/16 09:16:06;;;;;;;213.85;42.65;;;;;;;5.14;100.00;103755.50;5120154;27;20027;-45
2021/12/16 09:18:33;;;;;;;281.88;44.05;;;;;;;5.21;100.00;103763.19;5120581;27;20486;-46
2021/12/16 09:21:02;;;;;;;272.20;46.15;;;;;;;5.26;100.00;103752.44;5133337;27;20054;-46
2021/12/16 09:23:28;;;;;;;266.38;45.25;;;;;;;5.29;100.00;103746.16;5141007;27;20023;-46
2021/12/16 09:25:54;;;;;;;270.42;45.58;;;;;;;5.36;100.00;103760.91;5139735;27;20039;-46
2021/12/16 09:28:22;;;;;;;238.88;48.08;;;;;;;5.42;100.00;103753.59;5139207;27;20022;-47
2021/12/16 09:30:48;;;;;;;183.23;47.30;;;;;;;5.45;100.00;103754.38;5140777;27;20364;-49
2021/12/16 09:33:16;;;;;;;237.70;48.33;;;;;;;5.49;100.00;103758.69;5140858;27;20208;-44
2021/12/16 09:35:49;;;;;;;278.08;49.90;;;;;;;5.54;100.00;103762.03;5139801;27;20091;-46
2021/12/16 09:38:16;;;;;;;217.18;49.78;;;;;;;5.59;100.00;103766.22;5138915;27;20025;-49
2021/12/16 09:40:49;;;;;;;259.17;52.20;;;;;;;5.64;100.00;103771.38;5139588;27;20382;-46
2021/12/16 09:43:17;;;;;;;202.10;52.38;;;;;;;5.72;100.00;103774.59;5138658;27;20516;-45
2021/12/16 09:45:43;;;;;;;191.50;53.00;;;;;;;5.77;100.00;103764.69;5140059;27;20022;-47
2021/12/16 09:48:08;;;;;;;189.32;55.75;;;;;;;5.84;100.00;103754.72;5139955;27;20095;-46
2021/12/16 09:50:34;;;;;;;161.95;55.08;;;;;;;5.92;100.00;103765.03;5140601;27;20326;-46
2021/12/16 09:53:01;;;;;;;181.07;60.88;;;;;;;5.98;100.00;103760.38;5139844;27;20022;-47
2021/12/16 09:55:28;;;;;;;184.88;60.10;;;;;;;6.05;100.00;103752.19;5139351;27;20446;-49
2021/12/16 09:57:54;;;;;;;168.45;57.80;;;;;;;6.07;100.00;103756.50;5132123;27;20034;-46
2021/12/16 10:00:23;;;;;;;182.45;60.85;;;;;;;6.11;100.00;103765.19;5120691;27;20037;-50
2021/12/16 10:02:50;;;;;;;170.10;61.22;;;;;;;6.13;100.00;103766.88;5139989;27;20037;-48
2021/12/16 10:05:16;;;;;;;187.23;63.45;;;;;;;6.15;100.00;103765.03;5140253;27;20109;-47
2021/12/16 10:07:41;;;;;;;185.00;65.47;;;;;;;6.18;100.00;103768.47;5139159;27;20094;-47
2021/12/16 10:10:14;;;;;;;176.38;60.97;;;;;;;6.24;100.00;103758.50;5135192;27;20022;-46
2021/12/16 10:12:43;;;;;;;178.60;64.40;;;;;;;6.31;100.00;103759.13;5137882;27;20094;-46
2021/12/16 10:18:05;;;;;;;183.25;64.32;;;;;;;6.46;100.00;103758.50;5138690;27;20042;-46
2021/12/16 10:20:39;;;;;;;175.88;62.83;;;;;;;6.53;100.00;103756.47;5140417;27;20164;-48
2021/12/16 10:23:15;;;;;;;198.77;65.20;;;;;;;6.61;100.00;103756.16;5138827;27;20050;-47
2021/12/16 10:25:54;;;;;;;200.27;68.82;;;;;;;6.68;100.00;103758.47;5139006;27;20310;-45
2021/12/16 10:28:23;;;;;;;210.48;69.28;;;;;;;6.76;100.00;103755.53;5138435;27;20030;-50
2021/12/16 10:31:02;;;;;;;214.75;67.32;;;;;;;6.82;100.00;103755.28;5139982;27;20614;-47
2021/12/16 10:33:38;;;;;;;207.32;66.72;;;;;;;6.90;100.00;103761.09;5139544;27;20331;-50
2021/12/16 10:36:17;;;;;;;205.40;68.28;;;;;;;6.98;100.00;103759.94;5139403;27;20026;-46
2021/12/16 10:38:59;;;;;;;215.05;70.43;;;;;;;7.04;100.00;103765.84;5138194;27;20059;-48
2021/12/16 10:41:30;;;;;;;223.73;70.40;;;;;;;7.14;100.00;103760.13;5118609;27;20634;-46
2021/12/16 10:44:17;;;;;;;206.53;69.67;;;;;;;7.19;100.00;103763.44;5137858;27;20375;-48
2021/12/16 10:46:54;;;;;;;233.65;74.80;;;;;;;7.31;100.00;103770.03;5138682;27;20485;-46
2021/12/16 10:49:27;;;;;;;217.93;71.47;;;;;;;7.41;100.00;103763.38;5138397;27;20422;-49
2021/12/16 10:51:56;;;;;;;231.90;72.70;;;;;;;7.46;100.00;103775.50;5119159;27;20019;-46
2021/12/16 10:54:23;;;;;;;227.95;73.75;;;;;;;7.51;100.00;103772.66;5138519;27;20072;-48
2021/12/16 10:56:53;;;;;;;227.15;71.82;;;;;;;7.56;100.00;103781.28;5136730;27;20106;-45
2021/12/16 10:59:23;;;;;;;226.23;72.07;;;;;;;7.64;100.00;103775.63;5136314;27;20504;-46
2021/12/16 11:02:02;;;;;;;204.23;70.50;;;;;;;7.70;100.00;103785.97;5138446;27;20057;-47
2021/12/16 11:04:53;;;;;;;207.52;70.10;;;;;;;7.80;100.00;103781.09;5139384;27;20098;-47
2021/12/16 11:07:32;;;;;;;186.98;65.20;;;;;;;7.85;100.00;103787.94;5134381;27;20117;-47
2021/12/16 11:10:28;;;;;;;201.32;66.13;;;;;;;7.93;100.00;103786.75;5137678;27;20319;-48
2021/12/16 11:13:02;;;;;;;200.25;68.30;;;;;;;7.99;100.00;103787.31;5118820;27;20060;-51
2021/12/16 11:15:46;;;;;;;205.40;70.35;;;;;;;8.14;100.00;103788.38;5139685;27;20071;-48
2021/12/16 11:18:22;;;;;;;212.07;72.97;;;;;;;8.32;100.00;103778.66;5138827;27;20018;-47
2021/12/16 11:21:07;;;;;;;199.57;71.15;;;;;;;8.52;100.00;103783.06;5138921;27;20586;-48
2021/12/16 11:23:43;;;;;;;196.23;67.25;;;;;;;8.65;100.00;103782.44;5139223;27;20083;-47
2021/12/16 11:26:18;;;;;;;179.10;65.30;;;;;;;8.83;100.00;103786.84;5136776;27;20135;-47
2021/12/16 11:28:46;;;;;;;172.95;63.28;;;;;;;8.95;100.00;103788.03;5133729;27;20394;-47
2021/12/16 11:31:24;;;;;;;143.57;53.90;;;;;;;9.06;100.00;103779.50;5138209;27;20046;-50
2021/12/16 11:33:56;;;;;;;141.70;50.90;;;;;;;9.13;100.00;103780.88;5138044;27;20418;-47
2021/12/16 11:36:37;;;;;;;125.57;47.08;;;;;;;9.24;100.00;103783.88;5139195;27;20023;-47
2021/12/16 11:39:12;;;;;;;126.63;45.17;;;;;;;9.32;100.00;103775.47;5138159;27;20019;-45
2021/12/16 11:41:49;;;;;;;118.80;43.28;;;;;;;9.44;100.00;103779.31;5136251;27;20080;-48
2021/12/16 11:44:19;;;;;;;109.68;39.65;;;;;;;9.51;100.00;103781.56;5136289;27;20027;-49
2021/12/16 11:46:59;;;;;;;112.07;40.00;;;;;;;9.59;100.00;103777.59;5128618;27;20260;-46
2021/12/16 11:49:35;;;;;;;95.18;36.67;;;;;;;9.67;100.00;103786.06;5138767;27;20424;-47
2021/12/16 11:52:09;;;;;;;100.00;36.40;;;;;;;9.74;100.00;103790.13;5140610;27;20500;-45
2021/12/16 11:54:46;;;;;;;90.30;33.97;;;;;;;9.84;100.00;103771.81;5140018;27;20123;-47
2021/12/16 11:57:27;;;;;;;89.68;34.15;;;;;;;9.87;100.00;103767.16;5132737;27;20026;-50
2021/12/16 12:00:27;;;;;;;78.37;32.93;;;;;;;9.86;100.00;103776.13;5141760;27;20265;-47
2021/12/16 12:03:00;;;;;;;86.93;34.50;;;;;;;9.84;100.00;103763.78;5141929;27;20018;-49
2021/12/16 12:05:40;;;;;;;97.82;35.63;;;;;;;9.86;100.00;103767.22;5143014;27;20037;-49
2021/12/16 12:08:15;;;;;;;96.65;36.55;;;;;;;9.89;100.00;103762.63;5140071;27;20076;-46
2021/12/16 12:10:47;;;;;;;89.50;34.92;;;;;;;9.90;100.00;103764.31;5142121;27;20403;-50
2021/12/16 12:13:16;;;;;;;92.38;36.97;;;;;;;9.86;100.00;103764.56;5141331;27;20031;-47
2021/12/16 12:16:11;;;;;;;91.07;34.60;;;;;;;9.84;100.00;103767.34;5141584;27;20096;-46
2021/12/16 12:18:40;;;;;;;90.32;35.85;;;;;;;9.83;100.00;103762.94;5103107;27;20110;-49
2021/12/16 12:21:35;;;;;;;95.60;35.33;;;;;;;9.81;100.00;103761.28;5142191;27;20049;-52
2021/12/16 12:24:20;;;;;;;98.88;36.17;;;;;;;9.84;100.00;103758.47;5142425;27;20075;-47
2021/12/16 12:26:55;;;;;;;89.68;37.28;;;;;;;9.88;100.00;103760.03;5134897;27;20049;-48
2021/12/16 12:29:31;;;;;;;90.80;37.05;;;;;;;9.87;100.00;103760.97;5142400;27;20159;-47
2021/12/16 12:32:18;;;;;;;86.97;37.45;;;;;;;9.91;100.00;103754.50;5141443;27;20643;-47
2021/12/16 12:34:48;;;;;;;91.20;37.75;;;;;;;9.95;100.00;103752.53;5136081;27;20086;-48
2021/12/16 12:37:19;;;;;;;99.18;39.08;;;;;;;9.98;100.00;103757.69;5136854;27;20054;-46
2021/12/16 12:39:49;;;;;;;92.82;37.53;;;;;;;10.00;100.00;103751.34;5135585;27;20373;-49
2021/12/16 12:42:15;;;;;;;84.80;36.63;;;;;;;10.02;100.00;103753.91;5140303;27;20320;-51
2021/12/16 12:44:42;;;;;;;96.35;35.17;;;;;;;10.02;100.00;103748.56;5122463;27;20086;-51
2021/12/16 12:47:13;;;;;;;94.35;33.17;;;;;;;10.08;100.00;103756.22;5141192;27;20027;-48
2021/12/16 12:49:39;;;;;;;75.35;31.40;;;;;;;10.12;100.00;103756.94;5141490;27;20555;-47
2021/12/16 12:52:12;;;;;;;78.22;31.55;;;;;;;10.15;100.00;103760.28;5141790;27;20114;-50
2021/12/16 12:54:42;;;;;;;77.35;30.00;;;;;;;10.16;100.00;103766.50;5140756;27;20065;-50
2021/12/16 12:57:26;;;;;;;83.47;28.52;;;;;;;10.19;100.00;103763.66;5139959;27;20431;-47
2021/12/16 12:59:53;;;;;;;68.57;25.90;;;;;;;10.19;100.00;103751.16;5135940;27;20014;-46
2021/12/16 13:02:28;;;;;;;68.20;24.67;;;;;;;10.27;100.00;103756.91;5141672;27;20018;-50
2021/12/16 13:05:00;;;;;;;61.35;23.10;;;;;;;10.33;100.00;103755.72;5141271;27;20023;-48
2021/12/16 13:07:33;;;;;;;55.10;21.35;;;;;;;10.32;100.00;103751.34;5136017;27;20496;-46
2021/12/16 13:10:04;;;;;;;56.53;20.23;;;;;;;10.40;100.00;103750.91;5121650;27;20023;-45
2021/12/16 13:12:36;;;;;;;60.05;21.48;;;;;;;10.44;100.00;103747.97;5140051;27;20018;-49
2021/12/16 13:15:19;;;;;;;72.78;22.45;;;;;;;10.49;100.00;103744.16;5130618;27;20842;-48
2021/12/16 13:23:35;;;;;;;51.20;20.95;;;;;;;10.64;100.00;103751.28;5141444;27;20143;-46
2021/12/16 13:29:36;;;;;;;59.28;19.80;;;;;;;10.68;100.00;103755.50;5140720;27;20058;-47
2021/12/16 13:35:01;;;;;;;50.38;17.92;;;;;;;10.74;100.00;103756.97;5036256;28;20349;-46
2021/12/16 13:37:29;;;;;;;43.33;17.55;;;;;;;10.79;100.00;103755.75;5116230;27;20129;-46
2021/12/16 13:40:22;;;;;;;44.47;18.20;;;;;;;10.96;100.00;103765.44;5139833;27;20402;-49
2021/12/16 13:42:55;;;;;;;50.13;18.50;;;;;;;11.29;100.00;103763.50;5139526;27;20038;-47
2021/12/16 13:45:28;;;;;;;54.05;19.23;;;;;;;11.74;100.00;103766.91;5141390;27;20103;-47
2021/12/16 14:02:01;;;;;;;41.53;14.05;;;;;;;13.13;100.00;103764.03;5119803;27;20479;-49
2021/12/16 14:10:02;;;;;;;32.25;12.13;;;;;;;13.11;100.00;103778.53;5118952;27;20066;-47